sensor_id;sensor_type;location;lat;lon;timestamp;P1;P2;P0
77699;PMS5003;66867;42.658;23.320;2023-02-01T00:00:00;16;15;
77699;PMS5003;66867;42.658;23.320;2023-02-01T00:01:04;16;16;
77699;PMS5003;66867;42.658;23.320;2023-02-01T00:02:01;14;14;
77699;PMS5003;66867;42.658;23.320;2023-02-01T00:03:00;16;15;
77699;PMS5003;66867;42.658;23.320;2023-02-01T00:04:00;17;17;
77699;PMS5003;66867;42.658;23.320;2023-02-01T00:05:00;15;14;
77699;PMS5003;66867;42.658;23.320;2023-02-01T00:06:00;19;18;
77699;PMS5003;66867;42.658;23.320;2023-02-01T00:07:00;19;18;
77699;PMS5003;66867;42.658;23.320;2023-02-01T00:08:00;16;16;
77699;PMS5003;66867;42.658;23.320;2023-02-01T00:09:00;12;12;
77699;PMS5003;66867;42.658;23.320;2023-02-01T00:10:00;20;19;
77699;PMS5003;66867;42.658;23.320;2023-02-01T00:11:02;18;18;
77699;PMS5003;66867;42.658;23.320;2023-02-01T00:12:00;15;14;
77699;PMS5003;66867;42.658;23.320;2023-02-01T00:13:00;15;15;
77699;PMS5003;66867;42.658;23.320;2023-02-01T00:14:00;18;16;
77699;PMS5003;66867;42.658;23.320;2023-02-01T00:15:00;18;15;
77699;PMS5003;66867;42.658;23.320;2023-02-01T00:16:08;19;18;
77699;PMS5003;66867;42.658;23.320;2023-02-01T00:17:00;16;15;
77699;PMS5003;66867;42.658;23.320;2023-02-01T00:18:00;16;14;
77699;PMS5003;66867;42.658;23.320;2023-02-01T00:19:03;20;19;
77699;PMS5003;66867;42.658;23.320;2023-02-01T00:20:00;16;16;
77699;PMS5003;66867;42.658;23.320;2023-02-01T00:21:01;22;16;
77699;PMS5003;66867;42.658;23.320;2023-02-01T00:22:00;20;20;
77699;PMS5003;66867;42.658;23.320;2023-02-01T00:23:00;16;16;
77699;PMS5003;66867;42.658;23.320;2023-02-01T00:24:00;16;15;
77699;PMS5003;66867;42.658;23.320;2023-02-01T00:25:00;20;19;
77699;PMS5003;66867;42.658;23.320;2023-02-01T00:26:03;20;20;
77699;PMS5003;66867;42.658;23.320;2023-02-01T00:27:00;20;15;
77699;PMS5003;66867;42.658;23.320;2023-02-01T00:28:00;19;19;
77699;PMS5003;66867;42.658;23.320;2023-02-01T00:29:01;18;16;
77699;PMS5003;66867;42.658;23.320;2023-02-01T00:30:00;15;15;
77699;PMS5003;66867;42.658;23.320;2023-02-01T00:31:03;15;15;
77699;PMS5003;66867;42.658;23.320;2023-02-01T00:32:00;15;15;
77699;PMS5003;66867;42.658;23.320;2023-02-01T00:33:00;20;19;
77699;PMS5003;66867;42.658;23.320;2023-02-01T00:34:00;23;20;
77699;PMS5003;66867;42.658;23.320;2023-02-01T00:35:00;16;16;
77699;PMS5003;66867;42.658;23.320;2023-02-01T00:36:02;15;15;
77699;PMS5003;66867;42.658;23.320;2023-02-01T00:37:00;16;16;
77699;PMS5003;66867;42.658;23.320;2023-02-01T00:38:00;15;15;
77699;PMS5003;66867;42.658;23.320;2023-02-01T00:39:00;12;12;
77699;PMS5003;66867;42.658;23.320;2023-02-01T00:40:00;19;18;
77699;PMS5003;66867;42.658;23.320;2023-02-01T00:41:02;15;15;
77699;PMS5003;66867;42.658;23.320;2023-02-01T00:42:00;16;16;
77699;PMS5003;66867;42.658;23.320;2023-02-01T00:43:00;15;15;
77699;PMS5003;66867;42.658;23.320;2023-02-01T00:44:00;16;15;
77699;PMS5003;66867;42.658;23.320;2023-02-01T00:45:00;16;16;
77699;PMS5003;66867;42.658;23.320;2023-02-01T00:46:00;15;14;
77699;PMS5003;66867;42.658;23.320;2023-02-01T00:47:00;16;15;
77699;PMS5003;66867;42.658;23.320;2023-02-01T00:48:00;14;14;
77699;PMS5003;66867;42.658;23.320;2023-02-01T00:49:00;15;14;
77699;PMS5003;66867;42.658;23.320;2023-02-01T00:50:00;15;14;
77699;PMS5003;66867;42.658;23.320;2023-02-01T00:51:02;18;14;
77699;PMS5003;66867;42.658;23.320;2023-02-01T00:52:00;20;18;
77699;PMS5003;66867;42.658;23.320;2023-02-01T00:53:00;15;14;
77699;PMS5003;66867;42.658;23.320;2023-02-01T00:54:00;16;16;
77699;PMS5003;66867;42.658;23.320;2023-02-01T00:55:00;16;16;
77699;PMS5003;66867;42.658;23.320;2023-02-01T00:56:01;13;11;
77699;PMS5003;66867;42.658;23.320;2023-02-01T00:57:00;18;16;
77699;PMS5003;66867;42.658;23.320;2023-02-01T00:58:00;15;15;
77699;PMS5003;66867;42.658;23.320;2023-02-01T00:59:00;15;14;
77699;PMS5003;66867;42.658;23.320;2023-02-01T01:00:00;18;16;
77699;PMS5003;66867;42.658;23.320;2023-02-01T01:01:01;14;14;
77699;PMS5003;66867;42.658;23.320;2023-02-01T01:02:00;15;15;
77699;PMS5003;66867;42.658;23.320;2023-02-01T01:03:00;13;13;
77699;PMS5003;66867;42.658;23.320;2023-02-01T01:04:00;15;14;
77699;PMS5003;66867;42.658;23.320;2023-02-01T01:05:00;15;15;
77699;PMS5003;66867;42.658;23.320;2023-02-01T01:06:02;14;14;
77699;PMS5003;66867;42.658;23.320;2023-02-01T01:07:00;14;14;
77699;PMS5003;66867;42.658;23.320;2023-02-01T01:08:00;15;15;
77699;PMS5003;66867;42.658;23.320;2023-02-01T01:09:02;14;14;
77699;PMS5003;66867;42.658;23.320;2023-02-01T01:10:00;15;15;
77699;PMS5003;66867;42.658;23.320;2023-02-01T01:11:04;14;14;
77699;PMS5003;66867;42.658;23.320;2023-02-01T01:12:00;16;15;
77699;PMS5003;66867;42.658;23.320;2023-02-01T01:13:00;15;15;
77699;PMS5003;66867;42.658;23.320;2023-02-01T01:14:00;11;11;
77699;PMS5003;66867;42.658;23.320;2023-02-01T01:15:00;13;13;
77699;PMS5003;66867;42.658;23.320;2023-02-01T01:16:01;14;14;
77699;PMS5003;66867;42.658;23.320;2023-02-01T01:17:00;15;14;
77699;PMS5003;66867;42.658;23.320;2023-02-01T01:18:00;11;11;
77699;PMS5003;66867;42.658;23.320;2023-02-01T01:19:00;13;13;
77699;PMS5003;66867;42.658;23.320;2023-02-01T01:20:00;13;13;
77699;PMS5003;66867;42.658;23.320;2023-02-01T01:21:01;16;15;
77699;PMS5003;66867;42.658;23.320;2023-02-01T01:22:00;13;13;
77699;PMS5003;66867;42.658;23.320;2023-02-01T01:23:00;11;11;
77699;PMS5003;66867;42.658;23.320;2023-02-01T01:24:00;14;14;
77699;PMS5003;66867;42.658;23.320;2023-02-01T01:25:00;14;11;
77699;PMS5003;66867;42.658;23.320;2023-02-01T01:26:00;14;13;
77699;PMS5003;66867;42.658;23.320;2023-02-01T01:27:00;14;14;
77699;PMS5003;66867;42.658;23.320;2023-02-01T01:28:00;14;14;
77699;PMS5003;66867;42.658;23.320;2023-02-01T01:29:00;14;14;
77699;PMS5003;66867;42.658;23.320;2023-02-01T01:30:00;15;13;
77699;PMS5003;66867;42.658;23.320;2023-02-01T01:31:00;15;13;
77699;PMS5003;66867;42.658;23.320;2023-02-01T01:32:00;14;13;
77699;PMS5003;66867;42.658;23.320;2023-02-01T01:33:00;11;10;
77699;PMS5003;66867;42.658;23.320;2023-02-01T01:34:00;13;13;
77699;PMS5003;66867;42.658;23.320;2023-02-01T01:35:00;13;11;
77699;PMS5003;66867;42.658;23.320;2023-02-01T01:36:00;10;10;
77699;PMS5003;66867;42.658;23.320;2023-02-01T01:37:00;12;12;
77699;PMS5003;66867;42.658;23.320;2023-02-01T01:38:00;16;15;
77699;PMS5003;66867;42.658;23.320;2023-02-01T01:39:00;12;12;
77699;PMS5003;66867;42.658;23.320;2023-02-01T01:40:00;12;13;
77699;PMS5003;66867;42.658;23.320;2023-02-01T01:41:00;14;11;
77699;PMS5003;66867;42.658;23.320;2023-02-01T01:42:00;13;11;
77699;PMS5003;66867;42.658;23.320;2023-02-01T01:43:00;13;13;
77699;PMS5003;66867;42.658;23.320;2023-02-01T01:44:02;14;14;
77699;PMS5003;66867;42.658;23.320;2023-02-01T01:45:03;13;13;
77699;PMS5003;66867;42.658;23.320;2023-02-01T01:46:00;14;14;
77699;PMS5003;66867;42.658;23.320;2023-02-01T01:47:00;11;10;
77699;PMS5003;66867;42.658;23.320;2023-02-01T01:48:02;11;11;
77699;PMS5003;66867;42.658;23.320;2023-02-01T01:50:01;14;13;
77699;PMS5003;66867;42.658;23.320;2023-02-01T01:51:03;13;11;
77699;PMS5003;66867;42.658;23.320;2023-02-01T01:52:01;13;13;
77699;PMS5003;66867;42.658;23.320;2023-02-01T01:53:01;13;11;
77699;PMS5003;66867;42.658;23.320;2023-02-01T01:54:04;14;13;
77699;PMS5003;66867;42.658;23.320;2023-02-01T01:55:00;13;13;
77699;PMS5003;66867;42.658;23.320;2023-02-01T01:56:00;15;13;
77699;PMS5003;66867;42.658;23.320;2023-02-01T01:57:07;14;14;
77699;PMS5003;66867;42.658;23.320;2023-02-01T01:58:03;13;13;
77699;PMS5003;66867;42.658;23.320;2023-02-01T01:59:01;13;10;
77699;PMS5003;66867;42.658;23.320;2023-02-01T02:00:08;14;14;
77699;PMS5003;66867;42.658;23.320;2023-02-01T02:01:00;10;10;
77699;PMS5003;66867;42.658;23.320;2023-02-01T02:02:00;11;11;
77699;PMS5003;66867;42.658;23.320;2023-02-01T02:03:05;13;13;
77699;PMS5003;66867;42.658;23.320;2023-02-01T02:04:00;13;13;
77699;PMS5003;66867;42.658;23.320;2023-02-01T02:05:00;10;10;
77699;PMS5003;66867;42.658;23.320;2023-02-01T02:06:02;15;14;
77699;PMS5003;66867;42.658;23.320;2023-02-01T02:07:04;14;14;
77699;PMS5003;66867;42.658;23.320;2023-02-01T02:08:00;14;13;
77699;PMS5003;66867;42.658;23.320;2023-02-01T02:09:01;14;13;
77699;PMS5003;66867;42.658;23.320;2023-02-01T02:10:03;13;13;
77699;PMS5003;66867;42.658;23.320;2023-02-01T02:11:00;15;13;
77699;PMS5003;66867;42.658;23.320;2023-02-01T02:12:00;13;13;
77699;PMS5003;66867;42.658;23.320;2023-02-01T02:13:00;13;13;
77699;PMS5003;66867;42.658;23.320;2023-02-01T02:14:00;14;11;
77699;PMS5003;66867;42.658;23.320;2023-02-01T02:15:00;17;15;
77699;PMS5003;66867;42.658;23.320;2023-02-01T02:16:15;14;13;
77699;PMS5003;66867;42.658;23.320;2023-02-01T02:18:07;11;11;
77699;PMS5003;66867;42.658;23.320;2023-02-01T02:21:12;13;13;
77699;PMS5003;66867;42.658;23.320;2023-02-01T02:24:27;15;15;
77699;PMS5003;66867;42.658;23.320;2023-02-01T02:27:03;14;13;
77699;PMS5003;66867;42.658;23.320;2023-02-01T02:35:14;11;11;
77699;PMS5003;66867;42.658;23.320;2023-02-01T02:36:13;14;13;
77699;PMS5003;66867;42.658;23.320;2023-02-01T02:41:13;11;11;
77699;PMS5003;66867;42.658;23.320;2023-02-01T02:43:13;13;10;
77699;PMS5003;66867;42.658;23.320;2023-02-01T02:44:08;10;10;
77699;PMS5003;66867;42.658;23.320;2023-02-01T02:45:07;14;11;
77699;PMS5003;66867;42.658;23.320;2023-02-01T02:46:04;13;13;
77699;PMS5003;66867;42.658;23.320;2023-02-01T02:47:07;11;10;
77699;PMS5003;66867;42.658;23.320;2023-02-01T02:49:05;10;10;
77699;PMS5003;66867;42.658;23.320;2023-02-01T02:51:01;7;7;
77699;PMS5003;66867;42.658;23.320;2023-02-01T02:52:06;10;10;
77699;PMS5003;66867;42.658;23.320;2023-02-01T02:53:04;13;11;
77699;PMS5003;66867;42.658;23.320;2023-02-01T02:54:05;14;14;
77699;PMS5003;66867;42.658;23.320;2023-02-01T02:55:02;13;13;
77699;PMS5003;66867;42.658;23.320;2023-02-01T02:56:01;10;10;
77699;PMS5003;66867;42.658;23.320;2023-02-01T02:57:02;9;7;
77699;PMS5003;66867;42.658;23.320;2023-02-01T02:58:00;11;11;
77699;PMS5003;66867;42.658;23.320;2023-02-01T02:59:02;10;10;
77699;PMS5003;66867;42.658;23.320;2023-02-01T03:00:03;9;9;
77699;PMS5003;66867;42.658;23.320;2023-02-01T03:01:02;9;9;
77699;PMS5003;66867;42.658;23.320;2023-02-01T03:02:00;10;10;
77699;PMS5003;66867;42.658;23.320;2023-02-01T03:03:01;9;9;
77699;PMS5003;66867;42.658;23.320;2023-02-01T03:04:00;10;10;
77699;PMS5003;66867;42.658;23.320;2023-02-01T03:05:00;11;10;
77699;PMS5003;66867;42.658;23.320;2023-02-01T03:06:00;9;9;
77699;PMS5003;66867;42.658;23.320;2023-02-01T03:08:09;10;10;
77699;PMS5003;66867;42.658;23.320;2023-02-01T03:09:04;11;10;
77699;PMS5003;66867;42.658;23.320;2023-02-01T03:10:05;9;9;
77699;PMS5003;66867;42.658;23.320;2023-02-01T03:11:08;10;9;
77699;PMS5003;66867;42.658;23.320;2023-02-01T03:12:04;9;9;
77699;PMS5003;66867;42.658;23.320;2023-02-01T03:13:04;6;6;
77699;PMS5003;66867;42.658;23.320;2023-02-01T03:14:02;7;5;
77699;PMS5003;66867;42.658;23.320;2023-02-01T03:15:07;9;9;
77699;PMS5003;66867;42.658;23.320;2023-02-01T03:17:04;13;11;
77699;PMS5003;66867;42.658;23.320;2023-02-01T03:18:01;10;7;
77699;PMS5003;66867;42.658;23.320;2023-02-01T03:19:01;7;7;
77699;PMS5003;66867;42.658;23.320;2023-02-01T03:20:01;9;9;
77699;PMS5003;66867;42.658;23.320;2023-02-01T03:21:02;7;6;
77699;PMS5003;66867;42.658;23.320;2023-02-01T03:22:04;10;10;
77699;PMS5003;66867;42.658;23.320;2023-02-01T03:23:00;9;7;
77699;PMS5003;66867;42.658;23.320;2023-02-01T03:24:04;7;6;
77699;PMS5003;66867;42.658;23.320;2023-02-01T03:25:05;10;10;
77699;PMS5003;66867;42.658;23.320;2023-02-01T03:26:01;10;9;
77699;PMS5003;66867;42.658;23.320;2023-02-01T03:27:12;9;9;
77699;PMS5003;66867;42.658;23.320;2023-02-01T03:28:04;10;9;
77699;PMS5003;66867;42.658;23.320;2023-02-01T03:29:08;9;9;
77699;PMS5003;66867;42.658;23.320;2023-02-01T03:30:09;9;9;
77699;PMS5003;66867;42.658;23.320;2023-02-01T03:31:01;9;7;
77699;PMS5003;66867;42.658;23.320;2023-02-01T03:32:00;9;9;
77699;PMS5003;66867;42.658;23.320;2023-02-01T03:33:02;10;9;
77699;PMS5003;66867;42.658;23.320;2023-02-01T03:34:00;9;9;
77699;PMS5003;66867;42.658;23.320;2023-02-01T03:35:00;7;7;
77699;PMS5003;66867;42.658;23.320;2023-02-01T03:37:04;11;9;
77699;PMS5003;66867;42.658;23.320;2023-02-01T03:39:04;9;9;
77699;PMS5003;66867;42.658;23.320;2023-02-01T03:40:04;10;10;
77699;PMS5003;66867;42.658;23.320;2023-02-01T03:42:03;10;9;
77699;PMS5003;66867;42.658;23.320;2023-02-01T03:43:02;10;10;
77699;PMS5003;66867;42.658;23.320;2023-02-01T03:45:07;7;7;
77699;PMS5003;66867;42.658;23.320;2023-02-01T03:46:05;9;7;
77699;PMS5003;66867;42.658;23.320;2023-02-01T03:47:08;7;7;
77699;PMS5003;66867;42.658;23.320;2023-02-01T03:48:01;10;10;
77699;PMS5003;66867;42.658;23.320;2023-02-01T03:49:02;9;9;
77699;PMS5003;66867;42.658;23.320;2023-02-01T03:50:03;10;9;
77699;PMS5003;66867;42.658;23.320;2023-02-01T03:51:01;9;9;
77699;PMS5003;66867;42.658;23.320;2023-02-01T03:52:01;9;6;
77699;PMS5003;66867;42.658;23.320;2023-02-01T03:53:05;7;7;
77699;PMS5003;66867;42.658;23.320;2023-02-01T03:54:01;6;6;
77699;PMS5003;66867;42.658;23.320;2023-02-01T03:55:01;7;7;
77699;PMS5003;66867;42.658;23.320;2023-02-01T03:56:00;9;9;
77699;PMS5003;66867;42.658;23.320;2023-02-01T03:57:05;7;7;
77699;PMS5003;66867;42.658;23.320;2023-02-01T03:58:04;9;9;
77699;PMS5003;66867;42.658;23.320;2023-02-01T03:59:00;9;9;
77699;PMS5003;66867;42.658;23.320;2023-02-01T04:00:07;10;10;
77699;PMS5003;66867;42.658;23.320;2023-02-01T04:01:00;6;6;
77699;PMS5003;66867;42.658;23.320;2023-02-01T04:02:00;10;9;
77699;PMS5003;66867;42.658;23.320;2023-02-01T04:03:03;9;9;
77699;PMS5003;66867;42.658;23.320;2023-02-01T04:04:00;9;7;
77699;PMS5003;66867;42.658;23.320;2023-02-01T04:05:00;9;9;
77699;PMS5003;66867;42.658;23.320;2023-02-01T04:06:00;9;9;
77699;PMS5003;66867;42.658;23.320;2023-02-01T04:07:00;7;7;
77699;PMS5003;66867;42.658;23.320;2023-02-01T04:08:00;13;11;
77699;PMS5003;66867;42.658;23.320;2023-02-01T04:09:00;10;9;
77699;PMS5003;66867;42.658;23.320;2023-02-01T04:10:00;7;7;
77699;PMS5003;66867;42.658;23.320;2023-02-01T04:11:00;11;11;
77699;PMS5003;66867;42.658;23.320;2023-02-01T04:12:00;9;9;
77699;PMS5003;66867;42.658;23.320;2023-02-01T04:13:00;9;9;
77699;PMS5003;66867;42.658;23.320;2023-02-01T04:14:00;9;9;
77699;PMS5003;66867;42.658;23.320;2023-02-01T04:15:00;13;11;
77699;PMS5003;66867;42.658;23.320;2023-02-01T04:16:00;10;9;
77699;PMS5003;66867;42.658;23.320;2023-02-01T04:17:00;10;9;
77699;PMS5003;66867;42.658;23.320;2023-02-01T04:18:01;9;9;
77699;PMS5003;66867;42.658;23.320;2023-02-01T04:19:00;11;10;
77699;PMS5003;66867;42.658;23.320;2023-02-01T04:20:00;9;9;
77699;PMS5003;66867;42.658;23.320;2023-02-01T04:21:01;11;11;
77699;PMS5003;66867;42.658;23.320;2023-02-01T04:22:00;10;10;
77699;PMS5003;66867;42.658;23.320;2023-02-01T04:23:00;10;10;
77699;PMS5003;66867;42.658;23.320;2023-02-01T04:24:00;11;10;
77699;PMS5003;66867;42.658;23.320;2023-02-01T04:25:00;7;7;
77699;PMS5003;66867;42.658;23.320;2023-02-01T04:26:01;11;11;
77699;PMS5003;66867;42.658;23.320;2023-02-01T04:27:00;10;9;
77699;PMS5003;66867;42.658;23.320;2023-02-01T04:28:00;9;9;
77699;PMS5003;66867;42.658;23.320;2023-02-01T04:29:00;9;7;
77699;PMS5003;66867;42.658;23.320;2023-02-01T04:30:00;10;10;
77699;PMS5003;66867;42.658;23.320;2023-02-01T04:31:00;13;11;
77699;PMS5003;66867;42.658;23.320;2023-02-01T04:32:00;7;7;
77699;PMS5003;66867;42.658;23.320;2023-02-01T04:33:00;10;10;
77699;PMS5003;66867;42.658;23.320;2023-02-01T04:34:00;9;9;
77699;PMS5003;66867;42.658;23.320;2023-02-01T04:35:00;11;10;
77699;PMS5003;66867;42.658;23.320;2023-02-01T04:36:00;11;11;
77699;PMS5003;66867;42.658;23.320;2023-02-01T04:37:00;11;11;
77699;PMS5003;66867;42.658;23.320;2023-02-01T04:38:00;11;11;
77699;PMS5003;66867;42.658;23.320;2023-02-01T04:39:00;9;9;
77699;PMS5003;66867;42.658;23.320;2023-02-01T04:40:00;11;11;
77699;PMS5003;66867;42.658;23.320;2023-02-01T04:41:00;11;11;
77699;PMS5003;66867;42.658;23.320;2023-02-01T04:42:00;14;13;
77699;PMS5003;66867;42.658;23.320;2023-02-01T04:43:00;10;9;
77699;PMS5003;66867;42.658;23.320;2023-02-01T04:44:00;14;13;
77699;PMS5003;66867;42.658;23.320;2023-02-01T04:45:00;11;11;
77699;PMS5003;66867;42.658;23.320;2023-02-01T04:46:00;15;15;
77699;PMS5003;66867;42.658;23.320;2023-02-01T04:47:00;17;15;
77699;PMS5003;66867;42.658;23.320;2023-02-01T04:48:00;15;14;
77699;PMS5003;66867;42.658;23.320;2023-02-01T04:49:00;18;14;
77699;PMS5003;66867;42.658;23.320;2023-02-01T04:50:00;14;14;
77699;PMS5003;66867;42.658;23.320;2023-02-01T04:51:00;13;13;
77699;PMS5003;66867;42.658;23.320;2023-02-01T04:52:00;13;13;
77699;PMS5003;66867;42.658;23.320;2023-02-01T04:53:00;14;14;
77699;PMS5003;66867;42.658;23.320;2023-02-01T04:54:00;11;11;
77699;PMS5003;66867;42.658;23.320;2023-02-01T04:55:00;15;14;
77699;PMS5003;66867;42.658;23.320;2023-02-01T04:56:00;13;13;
77699;PMS5003;66867;42.658;23.320;2023-02-01T04:57:00;16;16;
77699;PMS5003;66867;42.658;23.320;2023-02-01T04:58:00;14;13;
77699;PMS5003;66867;42.658;23.320;2023-02-01T04:59:00;14;14;
77699;PMS5003;66867;42.658;23.320;2023-02-01T05:00:00;16;15;
77699;PMS5003;66867;42.658;23.320;2023-02-01T05:01:04;15;15;
77699;PMS5003;66867;42.658;23.320;2023-02-01T05:02:00;15;15;
77699;PMS5003;66867;42.658;23.320;2023-02-01T05:03:00;16;14;
77699;PMS5003;66867;42.658;23.320;2023-02-01T05:04:00;18;16;
77699;PMS5003;66867;42.658;23.320;2023-02-01T05:05:00;13;13;
77699;PMS5003;66867;42.658;23.320;2023-02-01T05:06:00;11;11;
77699;PMS5003;66867;42.658;23.320;2023-02-01T05:07:00;18;15;
77699;PMS5003;66867;42.658;23.320;2023-02-01T05:08:00;14;13;
77699;PMS5003;66867;42.658;23.320;2023-02-01T05:09:00;13;11;
77699;PMS5003;66867;42.658;23.320;2023-02-01T05:10:00;13;13;
77699;PMS5003;66867;42.658;23.320;2023-02-01T05:11:00;13;13;
77699;PMS5003;66867;42.658;23.320;2023-02-01T05:12:00;14;13;
77699;PMS5003;66867;42.658;23.320;2023-02-01T05:13:00;14;14;
77699;PMS5003;66867;42.658;23.320;2023-02-01T05:14:00;14;14;
77699;PMS5003;66867;42.658;23.320;2023-02-01T05:15:00;14;13;
77699;PMS5003;66867;42.658;23.320;2023-02-01T05:16:00;13;13;
77699;PMS5003;66867;42.658;23.320;2023-02-01T05:17:00;15;15;
77699;PMS5003;66867;42.658;23.320;2023-02-01T05:18:00;13;13;
77699;PMS5003;66867;42.658;23.320;2023-02-01T05:19:00;14;14;
77699;PMS5003;66867;42.658;23.320;2023-02-01T05:20:00;15;15;
77699;PMS5003;66867;42.658;23.320;2023-02-01T05:21:00;13;13;
77699;PMS5003;66867;42.658;23.320;2023-02-01T05:22:00;18;16;
77699;PMS5003;66867;42.658;23.320;2023-02-01T05:23:00;18;16;
77699;PMS5003;66867;42.658;23.320;2023-02-01T05:24:00;16;16;
77699;PMS5003;66867;42.658;23.320;2023-02-01T05:25:00;18;18;
77699;PMS5003;66867;42.658;23.320;2023-02-01T05:26:01;15;14;
77699;PMS5003;66867;42.658;23.320;2023-02-01T05:27:00;15;15;
77699;PMS5003;66867;42.658;23.320;2023-02-01T05:28:00;16;16;
77699;PMS5003;66867;42.658;23.320;2023-02-01T05:29:00;18;18;
77699;PMS5003;66867;42.658;23.320;2023-02-01T05:30:00;16;15;
77699;PMS5003;66867;42.658;23.320;2023-02-01T05:31:00;18;18;
77699;PMS5003;66867;42.658;23.320;2023-02-01T05:32:00;16;15;
77699;PMS5003;66867;42.658;23.320;2023-02-01T05:33:00;15;15;
77699;PMS5003;66867;42.658;23.320;2023-02-01T05:34:00;16;15;
77699;PMS5003;66867;42.658;23.320;2023-02-01T05:35:00;14;14;
77699;PMS5003;66867;42.658;23.320;2023-02-01T05:36:00;17;15;
77699;PMS5003;66867;42.658;23.320;2023-02-01T05:37:00;17;17;
77699;PMS5003;66867;42.658;23.320;2023-02-01T05:38:00;15;15;
77699;PMS5003;66867;42.658;23.320;2023-02-01T05:39:00;22;19;
77699;PMS5003;66867;42.658;23.320;2023-02-01T05:41:00;16;15;
77699;PMS5003;66867;42.658;23.320;2023-02-01T05:42:00;16;15;
77699;PMS5003;66867;42.658;23.320;2023-02-01T05:43:00;18;18;
77699;PMS5003;66867;42.658;23.320;2023-02-01T05:44:00;16;16;
77699;PMS5003;66867;42.658;23.320;2023-02-01T05:45:00;18;16;
77699;PMS5003;66867;42.658;23.320;2023-02-01T05:46:00;16;16;
77699;PMS5003;66867;42.658;23.320;2023-02-01T05:47:00;18;16;
77699;PMS5003;66867;42.658;23.320;2023-02-01T05:48:00;16;16;
77699;PMS5003;66867;42.658;23.320;2023-02-01T05:49:00;16;15;
77699;PMS5003;66867;42.658;23.320;2023-02-01T05:50:00;20;18;
77699;PMS5003;66867;42.658;23.320;2023-02-01T05:51:00;19;18;
77699;PMS5003;66867;42.658;23.320;2023-02-01T05:52:00;19;18;
77699;PMS5003;66867;42.658;23.320;2023-02-01T05:53:00;15;15;
77699;PMS5003;66867;42.658;23.320;2023-02-01T05:55:00;19;18;
77699;PMS5003;66867;42.658;23.320;2023-02-01T05:57:00;15;15;
77699;PMS5003;66867;42.658;23.320;2023-02-01T05:58:00;14;14;
77699;PMS5003;66867;42.658;23.320;2023-02-01T05:59:00;16;15;
77699;PMS5003;66867;42.658;23.320;2023-02-01T06:00:00;16;15;
77699;PMS5003;66867;42.658;23.320;2023-02-01T06:01:00;20;19;
77699;PMS5003;66867;42.658;23.320;2023-02-01T06:02:00;20;15;
77699;PMS5003;66867;42.658;23.320;2023-02-01T06:03:00;18;16;
77699;PMS5003;66867;42.658;23.320;2023-02-01T06:04:00;15;14;
77699;PMS5003;66867;42.658;23.320;2023-02-01T06:05:00;19;18;
77699;PMS5003;66867;42.658;23.320;2023-02-01T06:06:00;18;16;
77699;PMS5003;66867;42.658;23.320;2023-02-01T06:07:00;20;19;
77699;PMS5003;66867;42.658;23.320;2023-02-01T06:08:00;20;19;
77699;PMS5003;66867;42.658;23.320;2023-02-01T06:09:00;15;15;
77699;PMS5003;66867;42.658;23.320;2023-02-01T06:10:00;18;16;
77699;PMS5003;66867;42.658;23.320;2023-02-01T06:11:02;19;18;
77699;PMS5003;66867;42.658;23.320;2023-02-01T06:12:00;19;18;
77699;PMS5003;66867;42.658;23.320;2023-02-01T06:13:00;20;20;
77699;PMS5003;66867;42.658;23.320;2023-02-01T06:14:00;18;16;
77699;PMS5003;66867;42.658;23.320;2023-02-01T06:15:00;16;15;
77699;PMS5003;66867;42.658;23.320;2023-02-01T06:16:01;16;15;
77699;PMS5003;66867;42.658;23.320;2023-02-01T06:17:00;16;16;
77699;PMS5003;66867;42.658;23.320;2023-02-01T06:18:00;16;16;
77699;PMS5003;66867;42.658;23.320;2023-02-01T06:19:00;22;20;
77699;PMS5003;66867;42.658;23.320;2023-02-01T06:20:00;16;16;
77699;PMS5003;66867;42.658;23.320;2023-02-01T06:21:00;18;16;
77699;PMS5003;66867;42.658;23.320;2023-02-01T06:22:00;16;16;
77699;PMS5003;66867;42.658;23.320;2023-02-01T06:23:00;15;14;
77699;PMS5003;66867;42.658;23.320;2023-02-01T06:24:00;16;15;
77699;PMS5003;66867;42.658;23.320;2023-02-01T06:25:00;16;15;
77699;PMS5003;66867;42.658;23.320;2023-02-01T06:26:03;16;15;
77699;PMS5003;66867;42.658;23.320;2023-02-01T06:27:00;23;23;
77699;PMS5003;66867;42.658;23.320;2023-02-01T06:28:01;15;15;
77699;PMS5003;66867;42.658;23.320;2023-02-01T06:29:00;15;14;
77699;PMS5003;66867;42.658;23.320;2023-02-01T06:30:00;16;15;
77699;PMS5003;66867;42.658;23.320;2023-02-01T06:31:07;15;15;
77699;PMS5003;66867;42.658;23.320;2023-02-01T06:32:00;14;14;
77699;PMS5003;66867;42.658;23.320;2023-02-01T06:33:00;14;14;
77699;PMS5003;66867;42.658;23.320;2023-02-01T06:34:00;15;14;
77699;PMS5003;66867;42.658;23.320;2023-02-01T06:35:00;19;19;
77699;PMS5003;66867;42.658;23.320;2023-02-01T06:36:02;14;12;
77699;PMS5003;66867;42.658;23.320;2023-02-01T06:37:00;19;17;
77699;PMS5003;66867;42.658;23.320;2023-02-01T06:38:00;11;11;
77699;PMS5003;66867;42.658;23.320;2023-02-01T06:39:00;15;15;
77699;PMS5003;66867;42.658;23.320;2023-02-01T06:40:00;16;12;
77699;PMS5003;66867;42.658;23.320;2023-02-01T06:41:01;18;14;
77699;PMS5003;66867;42.658;23.320;2023-02-01T06:47:00;15;15;
77699;PMS5003;66867;42.658;23.320;2023-02-01T06:48:00;15;15;
77699;PMS5003;66867;42.658;23.320;2023-02-01T06:49:00;12;12;
77699;PMS5003;66867;42.658;23.320;2023-02-01T06:50:00;15;12;
77699;PMS5003;66867;42.658;23.320;2023-02-01T06:51:00;16;15;
77699;PMS5003;66867;42.658;23.320;2023-02-01T06:52:00;16;15;
77699;PMS5003;66867;42.658;23.320;2023-02-01T06:53:00;16;15;
77699;PMS5003;66867;42.658;23.320;2023-02-01T06:54:00;16;16;
77699;PMS5003;66867;42.658;23.320;2023-02-01T06:55:00;15;15;
77699;PMS5003;66867;42.658;23.320;2023-02-01T06:56:02;15;12;
77699;PMS5003;66867;42.658;23.320;2023-02-01T06:57:00;16;15;
77699;PMS5003;66867;42.658;23.320;2023-02-01T06:58:00;12;12;
77699;PMS5003;66867;42.658;23.320;2023-02-01T06:59:03;14;14;
77699;PMS5003;66867;42.658;23.320;2023-02-01T07:00:00;11;11;
77699;PMS5003;66867;42.658;23.320;2023-02-01T07:01:08;15;12;
77699;PMS5003;66867;42.658;23.320;2023-02-01T07:02:00;12;12;
77699;PMS5003;66867;42.658;23.320;2023-02-01T07:03:00;11;11;
77699;PMS5003;66867;42.658;23.320;2023-02-01T07:04:00;14;14;
77699;PMS5003;66867;42.658;23.320;2023-02-01T07:05:00;11;11;
77699;PMS5003;66867;42.658;23.320;2023-02-01T07:06:00;14;12;
77699;PMS5003;66867;42.658;23.320;2023-02-01T07:07:00;16;15;
77699;PMS5003;66867;42.658;23.320;2023-02-01T07:08:00;14;14;
77699;PMS5003;66867;42.658;23.320;2023-02-01T07:09:00;11;11;